Tropical Cyclones
[Index]
Main Index Home Page Stock Weather Photos Extreme Storms Discussion Storm News and Storm Chasing Reports Tropical Cyclones / Hurricanes / Typhoons Weather Data and Links Wild Fires / Bushfires Weather Observation Techniques Weather Picture Catalogue Tornado Pictures and Reports Stock Video Footage and DVDs for sale
Season 2010-2011 Tropical Cyclone ABELE Track Map
Season 2010-2011 Summaries: [BoM-AU] [JTWC-AU] [JTWC-SIO] [JTWC-SPAC] [JTWC-SH]
<<- Previous TC | BoM 2010-2011 Season | Next TC ->>

click for intensity scale information  Lat/long Grid: Show Hide

 Date Labels: Show Hide

Bureau of Meteorology Tropical Cyclone Data

Name: ABELE
Number: 939 / 201011_02

29 Nov 2010 00:00 UTC to 04 Dec 2010 18:00 UTC

    date/time    lat    long    hPa   cat  kts
2010-11-29 00   11.4    86.4   1000         25          
2010-11-29 06   11.5    86.1   1000         25          
2010-11-29 12   11.7    86.0   1000         25          
2010-11-29 18   12.1    85.9   1000         25          
2010-11-30 00   12.7    86.1    998         25          
2010-11-30 06   12.4    85.8    997         30          
2010-11-30 12   13.1    85.4    998         30          
2010-11-30 18   13.8    85.3    998         30          
2010-12-01 00   14.2    85.5    997         30          
2010-12-01 06   14.7    85.7    997         30          
2010-12-01 12   15.3    85.9    988    1    45          
2010-12-01 18   15.7    86.2    982    2    50          
2010-12-02 00   16.1    86.7    984    2    50          
2010-12-02 06   16.6    87.3    980    2    55          
2010-12-02 12   17.1    88.6    973    2    70          
2010-12-02 18   17.7    89.5    975    2    65          
2010-12-03 00   18.4    90.5    987    1    50          
2010-12-03 06   19.1    91.5    990    1    45          
2010-12-03 12   20.0    92.8    992    1    40          
2010-12-03 18   20.8    93.3    992    1    40          
2010-12-04 00   21.7    93.7    995    1    40          
2010-12-04 06   22.4    93.9    998         40          
2010-12-04 12   22.8    94.5    998         40          
2010-12-04 18   23.8    95.9    998         40          
Winds are 10-min average.

Tropical cyclone tracks developed by Michael Bath using data from the Bureau of Meteorology and Google Maps.


[Australian Severe Weather index] [Copyright Notice] [Email Contacts] [Search This Site] [Privacy Policy]
Document: tropical_cyclone_abele.htm Updated: 29 June 2017